createdAt,value
2018-03-15T00:00:13.518Z,67.7
2018-03-15T00:01:14.856Z,67.5
2018-03-15T00:02:16.217Z,67.4
2018-03-15T00:03:17.562Z,67.6
2018-03-15T00:04:18.935Z,67.6
2018-03-15T00:05:21.873Z,67.7
2018-03-15T00:06:23.221Z,67.1
2018-03-15T00:07:24.674Z,67.1
2018-03-15T00:08:26.015Z,67.3
2018-03-15T00:09:27.369Z,67.3
2018-03-15T00:10:29.310Z,67.7
2018-03-15T00:11:30.658Z,67.7
2018-03-15T00:12:32.000Z,67.7
2018-03-15T00:13:33.386Z,67.8
2018-03-15T00:14:34.731Z,68.0
2018-03-15T00:15:36.682Z,68.0
2018-03-15T00:16:38.060Z,68.1
2018-03-15T00:17:39.413Z,68.2
2018-03-15T00:18:42.457Z,67.7
2018-03-15T00:19:44.526Z,67.9
2018-03-15T00:20:45.878Z,67.9
2018-03-15T00:21:48.969Z,68.1
2018-03-15T00:22:51.571Z,68.1
2018-03-15T00:23:53.641Z,68.4
2018-03-15T00:24:55.041Z,68.1
2018-03-15T00:25:56.381Z,68.2
2018-03-15T00:26:57.730Z,68.1
2018-03-15T00:27:59.963Z,67.8
2018-03-15T00:29:01.315Z,67.9
2018-03-15T00:30:03.603Z,68.1
2018-03-15T00:31:05.693Z,68.4
2018-03-15T00:32:07.717Z,68.3
2018-03-15T00:33:09.712Z,68.3
2018-03-15T00:34:11.059Z,68.3
2018-03-15T00:35:12.968Z,68.9
2018-03-15T00:36:14.326Z,68.9
2018-03-15T00:37:15.672Z,68.8
2018-03-15T00:38:17.824Z,68.8
2018-03-15T00:39:19.176Z,68.8
2018-03-15T00:40:20.529Z,68.8
2018-03-15T00:41:21.872Z,69.0
2018-03-15T00:42:23.222Z,69.2
2018-03-15T00:43:24.574Z,69.0
2018-03-15T00:44:26.547Z,69.2
2018-03-15T00:45:27.901Z,69.5
2018-03-15T00:46:29.240Z,69.2
2018-03-15T00:47:30.593Z,69.4
2018-03-15T00:48:33.635Z,69.6
2018-03-15T00:49:34.120Z,69.5
2018-03-15T00:50:37.204Z,69.5
2018-03-15T00:51:39.470Z,69.2
2018-03-15T00:52:40.814Z,69.5
2018-03-15T00:53:42.965Z,69.5
2018-03-15T00:54:44.309Z,69.6
2018-03-15T00:55:45.655Z,69.8
2018-03-15T00:56:46.997Z,69.6
2018-03-15T00:57:48.346Z,69.9
2018-03-15T00:58:50.676Z,69.8
2018-03-15T00:59:52.010Z,70.3
2018-03-15T01:00:53.882Z,70.1
2018-03-15T01:01:55.237Z,70.0
2018-03-15T01:02:56.588Z,69.7
2018-03-15T01:03:57.940Z,70.0
2018-03-15T01:05:00.004Z,70.3
2018-03-15T01:06:01.376Z,70.2
2018-03-15T01:07:02.714Z,70.5
2018-03-15T01:08:04.092Z,70.4
2018-03-15T01:09:05.436Z,70.7
2018-03-15T01:10:07.291Z,70.4
2018-03-15T01:11:08.647Z,70.8
2018-03-15T01:12:09.996Z,71.0
2018-03-15T01:13:11.358Z,70.8
2018-03-15T01:14:12.712Z,70.8
2018-03-15T01:15:14.066Z,70.6
2018-03-15T01:16:15.416Z,70.8
2018-03-15T01:17:16.772Z,71.1
2018-03-15T01:18:18.122Z,71.3
2018-03-15T01:19:19.478Z,71.1
2018-03-15T01:20:20.822Z,71.5
2018-03-15T01:21:22.221Z,71.2
2018-03-15T01:22:23.573Z,71.3
2018-03-15T01:23:24.912Z,71.4
2018-03-15T01:24:27.141Z,71.1
2018-03-15T01:25:28.510Z,71.0
2018-03-15T01:26:29.856Z,71.1
2018-03-15T01:27:31.206Z,71.1
2018-03-15T01:28:32.553Z,70.9
2018-03-15T01:29:33.901Z,71.1
2018-03-15T01:30:35.830Z,70.9
2018-03-15T01:31:37.217Z,71.3
2018-03-15T01:32:38.554Z,71.7
2018-03-15T01:33:39.903Z,71.4
2018-03-15T01:34:41.246Z,71.7
2018-03-15T01:35:42.597Z,71.5
2018-03-15T01:36:43.947Z,71.8
2018-03-15T01:37:45.288Z,71.9
2018-03-15T01:38:46.637Z,71.5
2018-03-15T01:39:47.973Z,71.6
2018-03-15T01:40:49.962Z,71.9
2018-03-15T01:41:51.998Z,72.1
2018-03-15T01:42:53.349Z,72.1
2018-03-15T01:43:55.478Z,72.1
2018-03-15T01:44:56.823Z,72.0
2018-03-15T01:45:58.169Z,71.8
2018-03-15T01:46:59.523Z,72.2
2018-03-15T01:48:00.876Z,72.4
2018-03-15T01:49:02.220Z,72.6
2018-03-15T01:50:04.490Z,72.4
2018-03-15T01:51:05.843Z,72.2
2018-03-15T01:52:08.137Z,72.3
2018-03-15T01:53:09.484Z,72.0
2018-03-15T01:54:10.832Z,72.3
2018-03-15T01:55:12.188Z,72.2
2018-03-15T01:56:13.555Z,72.5
2018-03-15T01:57:16.139Z,72.5
2018-03-15T01:58:17.483Z,72.6
2018-03-15T01:59:18.823Z,72.5
2018-03-15T02:00:21.085Z,72.6
2018-03-15T02:01:22.444Z,72.7
2018-03-15T02:02:23.783Z,72.4
2018-03-15T02:03:25.136Z,72.4
2018-03-15T02:04:26.482Z,72.4
2018-03-15T02:05:28.411Z,72.6
2018-03-15T02:06:30.683Z,72.6
2018-03-15T02:07:32.587Z,73.0
2018-03-15T02:08:34.427Z,73.0
2018-03-15T02:09:35.842Z,73.2
2018-03-15T02:10:37.187Z,73.0
2018-03-15T02:11:38.553Z,72.9
2018-03-15T02:12:39.877Z,72.8
2018-03-15T02:13:41.241Z,73.0
2018-03-15T02:14:42.599Z,73.2
2018-03-15T02:15:43.937Z,73.2
2018-03-15T02:16:45.339Z,73.0
2018-03-15T02:17:46.639Z,73.3
2018-03-15T02:18:47.987Z,73.1
2018-03-15T02:19:49.339Z,73.2
2018-03-15T02:20:50.808Z,72.9
2018-03-15T02:21:52.151Z,73.3
2018-03-15T02:22:54.438Z,73.5
2018-03-15T02:23:55.775Z,73.5
2018-03-15T02:24:57.120Z,73.0
2018-03-15T02:25:58.459Z,73.0
2018-03-15T02:26:59.809Z,73.2
2018-03-15T02:28:01.147Z,73.2
2018-03-15T02:29:02.494Z,73.4
2018-03-15T02:30:03.874Z,74.1
2018-03-15T02:31:05.267Z,74.1
2018-03-15T02:32:06.614Z,74.0
2018-03-15T02:33:07.986Z,74.0
2018-03-15T02:34:09.337Z,73.8
2018-03-15T02:35:10.672Z,73.8
2018-03-15T02:36:12.026Z,73.9
2018-03-15T02:37:13.366Z,73.8
2018-03-15T02:38:15.655Z,73.7
2018-03-15T02:39:16.999Z,74.0
2018-03-15T02:40:18.356Z,74.0
2018-03-15T02:41:19.700Z,73.7
2018-03-15T02:42:21.058Z,74.3
2018-03-15T02:43:22.407Z,74.0
2018-03-15T02:44:23.748Z,74.3
2018-03-15T02:45:25.098Z,74.2
2018-03-15T02:46:27.136Z,74.5
2018-03-15T02:47:28.971Z,74.3
2018-03-15T02:48:30.392Z,74.2
2018-03-15T02:49:31.730Z,74.2
2018-03-15T02:50:33.072Z,74.2
2018-03-15T02:51:35.002Z,74.5
2018-03-15T02:52:36.345Z,74.3
2018-03-15T02:53:37.702Z,74.4
2018-03-15T02:54:39.063Z,74.5
2018-03-15T02:55:40.421Z,74.6
2018-03-15T02:56:41.804Z,74.4
2018-03-15T02:57:43.152Z,74.4
2018-03-15T02:58:44.511Z,75.2
2018-03-15T02:59:45.854Z,75.1
2018-03-15T03:00:47.196Z,75.2
2018-03-15T03:01:48.555Z,74.9
2018-03-15T03:02:52.002Z,74.9
2018-03-15T03:03:53.341Z,74.9
2018-03-15T03:04:54.687Z,75.1
2018-03-15T03:05:56.683Z,75.1
2018-03-15T03:06:58.034Z,75.3
2018-03-15T03:07:59.377Z,75.3
2018-03-15T03:09:00.729Z,75.2
2018-03-15T03:10:02.074Z,75.5
2018-03-15T03:11:03.975Z,75.5
2018-03-15T03:12:05.320Z,75.8
2018-03-15T03:13:06.671Z,75.8
2018-03-15T03:14:08.035Z,75.9
2018-03-15T03:15:09.387Z,75.8
2018-03-15T03:16:10.735Z,75.7
2018-03-15T03:17:12.083Z,75.5
2018-03-15T03:18:13.423Z,75.6
2018-03-15T03:19:14.769Z,75.5
2018-03-15T03:20:16.120Z,75.7
2018-03-15T03:21:17.467Z,75.3
2018-03-15T03:22:19.356Z,76.1
2018-03-15T03:23:20.708Z,76.1
2018-03-15T03:24:22.056Z,76.3
2018-03-15T03:25:24.103Z,76.3
2018-03-15T03:26:25.448Z,76.3
2018-03-15T03:27:26.808Z,76.1
2018-03-15T03:28:28.145Z,76.0
2018-03-15T03:29:29.508Z,76.3
2018-03-15T03:30:30.855Z,76.3
2018-03-15T03:31:32.196Z,76.0
2018-03-15T03:32:33.593Z,76.1
2018-03-15T03:33:34.917Z,76.1
2018-03-15T03:34:36.270Z,76.1
2018-03-15T03:35:37.626Z,76.1
2018-03-15T03:36:39.847Z,76.4
2018-03-15T03:37:41.195Z,76.3
2018-03-15T03:38:42.541Z,76.5
2018-03-15T03:39:43.887Z,76.2
2018-03-15T03:40:45.224Z,76.3
2018-03-15T03:41:46.573Z,76.8
2018-03-15T03:42:47.919Z,76.4
2018-03-15T03:43:49.264Z,76.4
2018-03-15T03:44:50.613Z,76.6
2018-03-15T03:45:52.770Z,76.4
2018-03-15T03:46:54.116Z,76.7
2018-03-15T03:47:55.469Z,76.7
2018-03-15T03:48:56.803Z,76.7
2018-03-15T03:49:58.144Z,76.8
2018-03-15T03:50:59.492Z,76.5
2018-03-15T03:52:00.836Z,76.7
2018-03-15T03:53:02.188Z,76.7
2018-03-15T03:54:03.589Z,76.7
2018-03-15T03:55:04.964Z,76.3
2018-03-15T03:56:06.952Z,76.3
2018-03-15T03:57:08.304Z,76.3
2018-03-15T03:58:09.655Z,76.7
2018-03-15T03:59:11.507Z,76.8
2018-03-15T04:00:12.855Z,76.4
2018-03-15T04:01:14.199Z,76.5
2018-03-15T04:02:16.414Z,76.7
2018-03-15T04:03:17.751Z,76.5
2018-03-15T04:04:19.101Z,76.6
2018-03-15T04:05:20.446Z,76.4
2018-03-15T04:06:21.787Z,76.6
2018-03-15T04:07:23.136Z,76.8
2018-03-15T04:08:24.494Z,77.0
2018-03-15T04:09:25.847Z,76.8
2018-03-15T04:10:27.199Z,76.9
2018-03-15T04:11:28.571Z,76.7
2018-03-15T04:12:30.465Z,76.8
2018-03-15T04:13:31.815Z,76.8
2018-03-15T04:14:33.208Z,76.6
2018-03-15T04:15:34.563Z,76.9
2018-03-15T04:16:35.906Z,76.6
2018-03-15T04:17:37.299Z,76.6
2018-03-15T04:18:38.648Z,76.7
2018-03-15T04:19:39.998Z,76.5
2018-03-15T04:20:41.360Z,76.6
2018-03-15T04:21:42.699Z,76.4
2018-03-15T04:22:44.045Z,76.7
2018-03-15T04:23:45.394Z,76.7
2018-03-15T04:24:46.740Z,76.6
2018-03-15T04:25:48.082Z,76.6
2018-03-15T04:26:49.442Z,76.6
2018-03-15T04:27:50.788Z,76.7
2018-03-15T04:28:52.135Z,76.6
2018-03-15T04:29:53.540Z,76.7
2018-03-15T04:30:54.884Z,76.9
2018-03-15T04:31:56.231Z,77.2
2018-03-15T04:32:57.578Z,77.2
2018-03-15T04:33:58.939Z,76.8
2018-03-15T04:35:00.283Z,76.9
2018-03-15T04:36:01.627Z,76.8
2018-03-15T04:37:02.968Z,76.8
2018-03-15T04:38:04.323Z,77.2
2018-03-15T04:39:06.272Z,76.8
2018-03-15T04:40:07.616Z,77.1
2018-03-15T04:41:08.969Z,77.3
2018-03-15T04:42:10.869Z,77.3
2018-03-15T04:43:12.219Z,77.2
2018-03-15T04:44:13.569Z,77.3
2018-03-15T04:45:14.911Z,77.1
2018-03-15T04:46:16.252Z,77.2
2018-03-15T04:47:18.297Z,77.3
2018-03-15T04:48:19.647Z,77.0
2018-03-15T04:49:20.996Z,77.0
2018-03-15T04:50:22.358Z,77.0
2018-03-15T04:51:23.755Z,77.0
2018-03-15T04:52:25.098Z,77.2
2018-03-15T04:53:26.454Z,77.2
2018-03-15T04:54:27.804Z,77.1
2018-03-15T04:55:29.161Z,77.3
2018-03-15T04:56:30.500Z,77.3
2018-03-15T04:57:31.849Z,77.3
2018-03-15T04:58:33.216Z,77.5
2018-03-15T04:59:35.330Z,77.3
2018-03-15T05:00:36.681Z,77.4
2018-03-15T05:01:38.032Z,77.5
2018-03-15T05:02:39.379Z,77.4
2018-03-15T05:03:40.721Z,77.6
2018-03-15T05:04:42.076Z,77.6
2018-03-15T05:05:43.458Z,77.9
2018-03-15T05:06:44.753Z,77.3
2018-03-15T05:07:46.985Z,78.0
2018-03-15T05:08:48.323Z,77.6
2018-03-15T05:09:49.677Z,77.4
2018-03-15T05:10:51.022Z,77.5
2018-03-15T05:11:52.946Z,77.6
2018-03-15T05:12:54.288Z,77.7
2018-03-15T05:13:55.638Z,77.5
2018-03-15T05:14:56.984Z,77.5
2018-03-15T05:15:58.337Z,78.0
2018-03-15T05:17:00.277Z,77.3
2018-03-15T05:18:01.668Z,77.7
2018-03-15T05:19:03.520Z,78.1
2018-03-15T05:20:05.822Z,77.7
2018-03-15T05:21:08.475Z,78.0
2018-03-15T05:22:09.818Z,77.5
2018-03-15T05:23:11.171Z,78.1
2018-03-15T05:24:12.596Z,77.1
2018-03-15T05:25:13.911Z,77.4
2018-03-15T05:26:15.222Z,77.3
2018-03-15T05:27:16.564Z,77.4
2018-03-15T05:28:18.438Z,77.2
2018-03-15T05:29:19.778Z,77.2
2018-03-15T05:30:21.699Z,77.1
2018-03-15T05:31:22.432Z,77.2
2018-03-15T05:32:23.783Z,77.3
2018-03-15T05:33:25.183Z,77.5
2018-03-15T05:34:26.488Z,77.2
2018-03-15T05:35:27.838Z,77.2
2018-03-15T05:36:29.193Z,77.5
2018-03-15T05:37:30.558Z,77.4
2018-03-15T05:38:36.849Z,77.2
2018-03-15T05:39:38.210Z,76.7
2018-03-15T05:40:39.555Z,76.9
2018-03-15T05:41:40.905Z,77.2
2018-03-15T05:42:42.256Z,76.7
2018-03-15T05:43:44.104Z,76.4
2018-03-15T05:44:45.451Z,76.7
2018-03-15T05:45:46.808Z,76.7
2018-03-15T05:46:48.158Z,76.3
2018-03-15T05:47:49.512Z,76.5
2018-03-15T05:48:50.861Z,76.4
2018-03-15T05:49:52.226Z,76.3
2018-03-15T05:50:53.573Z,76.3
2018-03-15T05:51:54.918Z,76.6
2018-03-15T05:52:57.585Z,76.4
2018-03-15T05:53:59.837Z,76.5
2018-03-15T05:55:01.179Z,76.7
2018-03-15T05:56:02.555Z,76.6
2018-03-15T05:57:04.790Z,76.7
2018-03-15T05:58:06.199Z,76.4
2018-03-15T05:59:07.596Z,76.2
2018-03-15T06:00:09.693Z,76.3
2018-03-15T06:01:10.374Z,76.1
2018-03-15T06:02:11.736Z,76.0
2018-03-15T06:03:13.091Z,76.3
2018-03-15T06:04:14.441Z,76.2
2018-03-15T06:05:16.559Z,76.1
2018-03-15T06:06:18.338Z,76.0
2018-03-15T06:07:20.234Z,76.4
2018-03-15T06:08:21.583Z,76.4
2018-03-15T06:09:22.931Z,76.4
2018-03-15T06:10:24.941Z,76.2
2018-03-15T06:11:26.289Z,76.3
2018-03-15T06:12:28.408Z,76.4
2018-03-15T06:13:29.763Z,76.2
2018-03-15T06:14:31.115Z,76.3
2018-03-15T06:15:32.475Z,75.8
2018-03-15T06:16:33.847Z,75.6
2018-03-15T06:17:35.202Z,75.3
2018-03-15T06:18:36.556Z,75.9
2018-03-15T06:19:38.886Z,75.8
2018-03-15T06:20:40.245Z,75.5
2018-03-15T06:21:41.603Z,76.0
2018-03-15T06:22:45.402Z,75.8
2018-03-15T06:23:47.286Z,75.5
2018-03-15T06:24:48.636Z,75.4
2018-03-15T06:25:49.990Z,75.4
2018-03-15T06:26:51.338Z,75.4
2018-03-15T06:27:52.694Z,75.0
2018-03-15T06:28:54.094Z,75.1
2018-03-15T06:29:55.437Z,74.8
2018-03-15T06:30:56.910Z,74.9
2018-03-15T06:31:58.277Z,74.9
2018-03-15T06:33:00.255Z,75.1
2018-03-15T06:34:01.642Z,74.8
2018-03-15T06:35:02.963Z,74.5
2018-03-15T06:36:04.323Z,74.5
2018-03-15T06:37:05.670Z,74.6
2018-03-15T06:38:07.032Z,74.4
2018-03-15T06:39:08.386Z,74.5
2018-03-15T06:40:10.357Z,74.6
2018-03-15T06:41:11.723Z,74.6
2018-03-15T06:42:13.113Z,74.7
2018-03-15T06:43:14.453Z,74.3
2018-03-15T06:44:15.858Z,74.5
2018-03-15T06:45:18.097Z,74.4
2018-03-15T06:46:19.451Z,74.5
2018-03-15T06:47:20.804Z,74.1
2018-03-15T06:48:22.814Z,74.4
2018-03-15T06:49:25.122Z,74.7
2018-03-15T06:50:26.486Z,74.2
2018-03-15T06:51:27.840Z,74.3
2018-03-15T06:52:30.896Z,74.0
2018-03-15T06:53:32.253Z,74.4
2018-03-15T06:54:33.629Z,73.6
2018-03-15T06:55:34.992Z,73.8
2018-03-15T06:56:36.408Z,73.8
2018-03-15T06:57:37.867Z,73.9
2018-03-15T06:58:39.227Z,73.6
2018-03-15T06:59:41.186Z,73.8
2018-03-15T07:00:42.552Z,73.5
2018-03-15T07:01:44.562Z,73.3
2018-03-15T07:02:45.925Z,73.3
2018-03-15T07:03:47.282Z,73.2
2018-03-15T07:04:48.648Z,73.1
2018-03-15T07:05:49.985Z,73.3
2018-03-15T07:06:51.365Z,73.5
2018-03-15T07:07:52.732Z,73.4
2018-03-15T07:08:54.703Z,73.3
2018-03-15T07:09:55.420Z,72.8
2018-03-15T07:10:56.872Z,73.2
2018-03-15T07:11:58.221Z,72.4
2018-03-15T07:13:00.107Z,72.5
2018-03-15T07:14:01.467Z,72.2
2018-03-15T07:15:02.821Z,72.3
2018-03-15T07:16:04.187Z,72.1
2018-03-15T07:17:05.559Z,72.4
2018-03-15T07:18:06.938Z,72.4
2018-03-15T07:23:51.342Z,72.0
2018-03-15T07:24:53.322Z,72.0
2018-03-15T07:25:55.030Z,71.2
2018-03-15T07:26:57.476Z,70.9
2018-03-15T07:27:59.667Z,71.3
2018-03-15T07:29:01.167Z,71.0
2018-03-15T07:30:02.657Z,71.6
2018-03-15T07:31:04.192Z,71.4
2018-03-15T07:32:05.645Z,70.9
2018-03-15T07:33:07.077Z,71.1
2018-03-15T07:34:08.594Z,71.3
2018-03-15T07:35:10.038Z,71.0
2018-03-15T07:36:11.470Z,71.1
2018-03-15T07:37:12.915Z,70.9
2018-03-15T07:38:14.310Z,70.9
2018-03-15T07:39:15.813Z,70.8
2018-03-15T07:40:17.323Z,71.0
2018-03-15T07:41:18.766Z,70.4
2018-03-15T07:42:20.206Z,70.4
2018-03-15T07:43:21.575Z,70.7
2018-03-15T07:44:23.045Z,70.5
2018-03-15T07:45:24.454Z,70.5
2018-03-15T07:46:25.938Z,70.0
2018-03-15T07:47:27.865Z,69.7
2018-03-15T07:48:29.373Z,69.7
2018-03-15T07:49:30.834Z,70.1
2018-03-15T07:50:32.262Z,70.1
2018-03-15T07:51:33.696Z,70.0
2018-03-15T07:52:35.118Z,70.1
2018-03-15T07:53:36.562Z,69.9
2018-03-15T07:54:38.104Z,69.9
2018-03-15T07:55:40.345Z,69.5
2018-03-15T07:56:42.219Z,69.8
2018-03-15T07:57:44.510Z,69.4
2018-03-15T07:58:46.054Z,69.3
2018-03-15T07:59:48.193Z,69.5
2018-03-15T08:00:49.644Z,69.7
2018-03-15T08:01:51.142Z,69.2
2018-03-15T08:02:53.332Z,69.4
2018-03-15T08:03:54.846Z,69.0
2018-03-15T08:04:56.751Z,68.9
2018-03-15T08:05:58.301Z,69.0
2018-03-15T08:06:59.729Z,68.8
2018-03-15T08:08:01.193Z,68.7
2018-03-15T08:09:02.593Z,68.8
2018-03-15T08:10:04.027Z,68.5
2018-03-15T08:11:05.822Z,68.5
2018-03-15T08:12:07.355Z,68.0
2018-03-15T08:13:08.814Z,68.3
2018-03-15T08:14:10.333Z,68.2
2018-03-15T08:15:11.783Z,68.1
2018-03-15T08:16:13.195Z,68.1
2018-03-15T08:17:15.522Z,68.0
2018-03-15T08:18:16.974Z,67.7
2018-03-15T08:19:18.436Z,67.5
2018-03-15T08:20:19.994Z,67.3
2018-03-15T08:21:21.455Z,67.1
2018-03-15T08:22:23.144Z,67.0
2018-03-15T08:23:25.278Z,67.7
2018-03-15T08:24:27.394Z,67.5
2018-03-15T08:25:29.235Z,67.4
2018-03-15T08:26:30.713Z,67.5
2018-03-15T08:27:32.588Z,67.1
2018-03-15T08:28:34.350Z,66.9
2018-03-15T08:29:36.216Z,67.1
2018-03-15T08:30:37.799Z,67.2
2018-03-15T08:31:39.262Z,67.3
2018-03-15T08:32:40.701Z,66.6
2018-03-15T08:33:42.138Z,66.7
2018-03-15T08:34:43.671Z,67.0
2018-03-15T08:35:45.190Z,66.9
2018-03-15T08:36:48.624Z,66.4
2018-03-15T08:37:50.452Z,66.3
2018-03-15T08:38:53.227Z,66.2
2018-03-15T08:39:54.722Z,66.0
2018-03-15T08:40:56.704Z,66.3
2018-03-15T08:41:58.546Z,65.9
2018-03-15T08:43:00.293Z,65.8
2018-03-15T08:44:02.119Z,65.7
2018-03-15T08:45:04.011Z,65.9
2018-03-15T08:46:05.505Z,66.0
2018-03-15T08:47:06.951Z,65.4
2018-03-15T08:48:08.398Z,65.6
2018-03-15T08:49:10.372Z,65.4
2018-03-15T08:50:11.849Z,65.4
2018-03-15T08:51:14.585Z,65.1
2018-03-15T08:52:16.079Z,65.0
2018-03-15T08:53:17.562Z,65.3
2018-03-15T08:54:19.875Z,64.7
2018-03-15T08:55:21.368Z,64.6
2018-03-15T08:56:23.877Z,64.7
2018-03-15T08:57:25.363Z,65.2
2018-03-15T08:58:26.957Z,64.7
2018-03-15T08:59:28.375Z,64.2
2018-03-15T09:00:29.847Z,64.5
2018-03-15T09:01:32.099Z,64.2
2018-03-15T09:02:34.876Z,64.1
2018-03-15T09:03:37.044Z,64.2
2018-03-15T09:04:38.874Z,64.2
2018-03-15T09:05:40.399Z,64.1
2018-03-15T09:06:42.361Z,63.8
2018-03-15T09:07:44.405Z,64.1
2018-03-15T09:08:46.489Z,64.1
2018-03-15T09:09:47.949Z,64.3
2018-03-15T09:10:49.429Z,63.6
2018-03-15T09:11:50.875Z,63.4
2018-03-15T09:12:52.285Z,63.6
2018-03-15T09:13:53.755Z,63.6
2018-03-15T09:14:55.220Z,63.6
2018-03-15T09:15:56.734Z,63.4
2018-03-15T09:16:59.012Z,62.9
2018-03-15T09:18:00.739Z,63.4
2018-03-15T09:19:02.306Z,63.1
2018-03-15T09:20:04.419Z,63.4
2018-03-15T09:21:06.167Z,63.5
2018-03-15T09:22:07.930Z,63.0
2018-03-15T09:23:09.573Z,62.4
2018-03-15T09:24:10.990Z,62.7
2018-03-15T09:25:12.410Z,62.7
2018-03-15T09:26:13.834Z,62.2
2018-03-15T09:27:15.444Z,62.2
2018-03-15T09:28:17.809Z,62.7
2018-03-15T09:29:19.235Z,62.4
2018-03-15T09:30:20.732Z,62.8
2018-03-15T09:31:22.250Z,61.9
2018-03-15T09:32:23.779Z,62.0
2018-03-15T09:33:25.296Z,61.3
2018-03-15T09:34:27.416Z,61.2
2018-03-15T09:35:28.839Z,61.4
2018-03-15T09:36:30.239Z,61.1
2018-03-15T09:37:32.194Z,60.6
2018-03-15T09:38:33.700Z,60.5
2018-03-15T09:39:35.265Z,60.0
2018-03-15T09:40:36.773Z,59.8
2018-03-15T09:41:38.278Z,59.6
2018-03-15T09:42:39.790Z,59.7
2018-03-15T09:43:41.792Z,59.8
2018-03-15T09:44:43.242Z,59.8
2018-03-15T09:45:45.203Z,59.8
2018-03-15T09:46:47.456Z,59.5
2018-03-15T09:47:48.949Z,59.9
2018-03-15T09:48:51.313Z,59.1
2018-03-15T09:49:53.056Z,59.0
2018-03-15T09:50:55.466Z,59.3
2018-03-15T09:51:57.178Z,58.7
2018-03-15T09:52:58.626Z,58.6
2018-03-15T09:54:00.152Z,58.6
2018-03-15T09:55:01.658Z,58.4
2018-03-15T09:56:03.350Z,58.8
2018-03-15T09:57:04.943Z,58.8
2018-03-15T09:58:06.415Z,58.6
2018-03-15T09:59:08.152Z,58.7
2018-03-15T10:00:09.922Z,58.7
2018-03-15T10:01:11.455Z,58.7
2018-03-15T10:02:12.965Z,58.8
2018-03-15T10:03:14.421Z,58.8
2018-03-15T10:04:15.910Z,58.5
2018-03-15T10:05:17.655Z,58.7
2018-03-15T10:06:19.095Z,58.1
2018-03-15T10:07:20.525Z,58.0
2018-03-15T10:08:22.594Z,58.1
2018-03-15T10:09:24.267Z,57.9
2018-03-15T10:10:26.312Z,58.1
2018-03-15T10:11:27.869Z,58.3
2018-03-15T10:12:29.904Z,57.5
2018-03-15T10:13:32.150Z,57.4
2018-03-15T10:14:33.561Z,57.1
2018-03-15T10:15:35.030Z,57.6
2018-03-15T10:16:36.890Z,57.3
2018-03-15T10:17:38.593Z,57.4
2018-03-15T10:18:41.619Z,57.6
2018-03-15T10:19:43.104Z,57.6
2018-03-15T10:20:44.989Z,57.4
2018-03-15T10:21:46.573Z,57.5
2018-03-15T10:22:48.019Z,57.5
2018-03-15T10:23:49.491Z,57.5
2018-03-15T10:24:51.092Z,57.4
2018-03-15T10:25:52.644Z,57.4
2018-03-15T10:26:54.260Z,56.9
2018-03-15T10:27:56.985Z,57.0
2018-03-15T10:28:58.589Z,57.3
2018-03-15T10:30:00.074Z,57.3
2018-03-15T10:31:03.542Z,57.2
2018-03-15T10:32:05.005Z,57.0
2018-03-15T10:33:06.745Z,56.9
2018-03-15T10:34:08.336Z,57.1
2018-03-15T10:35:10.000Z,56.6
2018-03-15T10:36:11.498Z,56.5
2018-03-15T10:37:13.028Z,56.3
2018-03-15T10:38:14.446Z,56.5
2018-03-15T10:39:15.958Z,56.7
2018-03-15T10:40:17.419Z,56.3
2018-03-15T10:41:19.485Z,56.1
2018-03-15T10:42:21.321Z,56.3
2018-03-15T10:43:23.447Z,56.5
2018-03-15T10:44:24.929Z,56.0
2018-03-15T10:45:26.403Z,56.3
2018-03-15T10:46:27.913Z,56.0
2018-03-15T10:47:29.329Z,55.8
2018-03-15T10:48:30.781Z,55.8
2018-03-15T10:49:32.217Z,55.2
2018-03-15T10:50:34.423Z,55.2
2018-03-15T10:51:36.653Z,54.8
2018-03-15T10:52:38.128Z,55.1
2018-03-15T10:53:39.579Z,55.3
2018-03-15T10:54:41.025Z,55.4
2018-03-15T10:55:42.450Z,55.2
2018-03-15T10:56:43.909Z,55.0
2018-03-15T10:57:45.392Z,55.4
2018-03-15T10:58:46.922Z,55.1
2018-03-15T10:59:48.451Z,54.7
2018-03-15T11:00:50.769Z,54.4
2018-03-15T11:01:52.475Z,54.9
2018-03-15T11:02:53.922Z,55.4
2018-03-15T11:03:55.355Z,55.3
2018-03-15T11:04:56.756Z,55.3
2018-03-15T11:05:58.216Z,55.3
2018-03-15T11:06:59.609Z,55.2
2018-03-15T11:08:02.611Z,55.4
2018-03-15T11:09:04.165Z,55.2
2018-03-15T11:10:06.476Z,54.9
2018-03-15T11:11:07.904Z,55.0
2018-03-15T11:12:09.385Z,55.1
2018-03-15T11:13:10.752Z,55.0
2018-03-15T11:14:12.181Z,55.0
2018-03-15T11:15:13.795Z,55.2
2018-03-15T11:16:15.247Z,55.0
2018-03-15T11:17:16.703Z,55.2
2018-03-15T11:18:18.198Z,54.9
2018-03-15T11:19:19.682Z,55.3
2018-03-15T11:20:21.090Z,54.8
2018-03-15T11:21:22.533Z,55.4
2018-03-15T11:22:24.031Z,55.0
2018-03-15T11:23:25.720Z,55.0
2018-03-15T11:24:27.396Z,54.7
2018-03-15T11:25:28.909Z,54.9
2018-03-15T11:26:30.637Z,55.0
2018-03-15T11:27:32.925Z,54.9
2018-03-15T11:28:34.557Z,55.5
2018-03-15T11:29:36.144Z,55.5
2018-03-15T11:30:37.650Z,55.2
2018-03-15T11:31:39.703Z,55.3
2018-03-15T11:32:41.167Z,55.6
2018-03-15T11:33:42.606Z,55.4
2018-03-15T11:34:43.973Z,55.3
2018-03-15T11:35:45.347Z,54.9
2018-03-15T11:36:46.660Z,55.4
2018-03-15T11:37:48.042Z,55.2
2018-03-15T11:38:49.798Z,55.4
2018-03-15T11:39:51.155Z,55.0
2018-03-15T11:40:52.520Z,55.0
2018-03-15T11:41:53.889Z,55.2
2018-03-15T11:42:55.263Z,55.1
2018-03-15T11:43:56.656Z,55.3
2018-03-15T11:44:58.064Z,55.3
2018-03-15T11:45:59.486Z,54.8
2018-03-15T11:47:00.994Z,54.7
2018-03-15T11:48:02.499Z,54.9
2018-03-15T11:49:05.471Z,54.8
2018-03-15T11:50:05.890Z,54.4
2018-03-15T11:51:07.266Z,54.7
2018-03-15T11:52:08.642Z,54.3
2018-03-15T11:53:10.087Z,54.6
2018-03-15T11:54:11.481Z,54.5
2018-03-15T11:55:12.965Z,54.3
2018-03-15T11:56:14.396Z,53.9
2018-03-15T11:57:16.092Z,54.2
2018-03-15T11:58:17.586Z,53.9
2018-03-15T11:59:18.982Z,53.5
2018-03-15T12:00:20.368Z,53.8
2018-03-15T12:01:25.278Z,53.5
2018-03-15T12:02:27.569Z,52.7
2018-03-15T12:03:29.030Z,53.2
2018-03-15T12:04:30.385Z,52.9
2018-03-15T12:05:32.650Z,53.0
2018-03-15T12:06:34.123Z,53.0
2018-03-15T12:07:35.577Z,53.0
2018-03-15T12:08:36.981Z,52.9
2018-03-15T12:09:38.425Z,52.6
2018-03-15T12:10:40.115Z,52.5
2018-03-15T12:11:41.540Z,52.4
2018-03-15T12:12:43.005Z,52.6
2018-03-15T12:13:45.065Z,52.7
2018-03-15T12:14:46.449Z,51.7
2018-03-15T12:15:47.863Z,51.8
2018-03-15T12:16:49.488Z,51.9
2018-03-15T12:17:50.949Z,51.7
2018-03-15T12:18:52.398Z,52.0
2018-03-15T12:19:53.959Z,51.1
2018-03-15T12:20:55.372Z,51.3
2018-03-15T12:21:56.841Z,51.4
2018-03-15T12:22:58.303Z,51.5
2018-03-15T12:23:59.684Z,51.0
2018-03-15T12:25:01.560Z,50.5
2018-03-15T12:26:03.532Z,51.0
2018-03-15T12:27:04.906Z,50.4
2018-03-15T12:28:06.341Z,50.2
2018-03-15T12:29:07.774Z,50.4
2018-03-15T12:30:09.884Z,50.2
2018-03-15T12:31:11.284Z,51.0
2018-03-15T12:32:12.681Z,50.6
2018-03-15T12:33:14.053Z,50.6
2018-03-15T12:34:15.446Z,50.2
2018-03-15T12:35:16.822Z,50.1
2018-03-15T12:36:18.197Z,50.0
2018-03-15T12:37:20.112Z,49.9
2018-03-15T12:38:21.489Z,50.0
2018-03-15T12:39:23.213Z,50.1
2018-03-15T12:40:24.625Z,49.5
2018-03-15T12:41:26.023Z,49.7
2018-03-15T12:42:27.392Z,49.7
2018-03-15T12:43:28.773Z,49.4
2018-03-15T12:44:30.895Z,49.4
2018-03-15T12:45:32.368Z,49.4
2018-03-15T12:46:33.759Z,49.1
2018-03-15T12:47:35.268Z,48.5
2018-03-15T12:48:36.759Z,48.5
2018-03-15T12:49:38.320Z,48.5
2018-03-15T12:50:39.699Z,48.2
2018-03-15T12:51:41.146Z,47.8
2018-03-15T12:52:42.688Z,48.2
2018-03-15T12:53:44.159Z,47.9
2018-03-15T12:54:45.561Z,47.9
2018-03-15T12:55:46.964Z,48.0
2018-03-15T12:56:48.442Z,47.9
2018-03-15T12:57:49.889Z,48.5
2018-03-15T12:58:51.470Z,47.8
2018-03-15T12:59:53.198Z,47.9
2018-03-15T13:00:55.075Z,48.0
2018-03-15T13:01:56.608Z,48.3
2018-03-15T13:02:58.245Z,48.3
2018-03-15T13:03:59.760Z,48.1
2018-03-15T13:05:01.630Z,47.8
2018-03-15T13:06:03.119Z,47.8
2018-03-15T13:07:04.630Z,48.1
2018-03-15T13:08:06.356Z,47.8
2018-03-15T13:09:07.874Z,48.3
2018-03-15T13:10:09.423Z,47.7
2018-03-15T13:11:11.187Z,48.0
2018-03-15T13:12:12.828Z,47.9
2018-03-15T13:13:14.306Z,48.1
2018-03-15T13:14:15.864Z,48.1
2018-03-15T13:15:17.338Z,48.2
2018-03-15T13:16:18.755Z,47.9
2018-03-15T13:17:20.159Z,48.0
2018-03-15T13:18:25.685Z,47.9
2018-03-15T13:19:27.251Z,48.0
2018-03-15T13:20:28.884Z,48.3
2018-03-15T13:21:30.873Z,47.8
2018-03-15T13:22:32.396Z,47.9
2018-03-15T13:23:34.394Z,48.0
2018-03-15T13:24:36.090Z,48.2
2018-03-15T13:25:38.297Z,47.9
2018-03-15T13:26:40.628Z,48.0
2018-03-15T13:27:42.153Z,48.1
2018-03-15T13:28:43.705Z,48.0
2018-03-15T13:29:45.244Z,48.1
2018-03-15T13:30:46.701Z,48.2
2018-03-15T13:31:48.176Z,48.3
2018-03-15T13:32:49.660Z,48.0
2018-03-15T13:33:51.370Z,48.5
2018-03-15T13:34:53.629Z,48.2
2018-03-15T13:35:55.490Z,48.0
2018-03-15T13:36:56.993Z,48.4
2018-03-15T13:37:58.601Z,48.0
2018-03-15T13:39:00.105Z,48.4
2018-03-15T13:40:01.661Z,47.9
2018-03-15T13:41:03.220Z,48.2
2018-03-15T13:42:04.757Z,48.3
2018-03-15T13:43:06.251Z,48.2
2018-03-15T13:44:07.776Z,48.4